• Join FlightAware (Why Join?)
  • Login
  • US Flag 
01:24AM EDT


 

Airport Tracker/Info


-or-


 

Live Flight TrackerFlight Track Log ✈ AAL1398 ✈ 10-Apr-2013 ✈ MDSD / SDQ - KMIA

Flight Track Log - Related Links

Times and Time Zones

All times are in EDT time to prevent confusion due to time zone crossing. See the AAL1398 flight status page for this flight to view local times or setup timezone preferences in your user account.

Time Position Orientation Groundspeed Altitude Reporting Facility
EDT Latitude Longitude Course Direction KTS MPH feet Rate Location/Type
01:52PM 18.6067 -69.7853 328° Northwest  Level FlightAware Approximate
01:53PM 18.6952 -69.8436 328° Northwest  Level FlightAware Approximate
01:54PM 18.7836 -69.9020 328° Northwest  Level FlightAware Approximate
01:55PM 18.8721 -69.9604 328° Northwest  Level FlightAware Approximate
01:56PM 18.9605 -70.0188 328° Northwest  Level FlightAware Approximate
01:57PM 19.0489 -70.0774 328° Northwest  Level FlightAware Approximate
01:58PM 19.1373 -70.1360 328° Northwest  Level FlightAware Approximate
01:58PM 18.6394 -70.1475 327° Northwest 435 501 20,700  Level Miami Center
01:59PM 19.2124 -70.1925 325° Northwest  Level FlightAware Approximate
01:59PM 18.7372 -70.1953 335° Northwest 412 474 22,200  Level Miami Center
02:00PM 19.2975 -70.2564 325° Northwest  Level FlightAware Approximate
02:00PM 18.8308 -70.2458 333° Northwest 395 455 24,300  Level Miami Center
02:01PM 19.3842 -70.3178 327° Northwest  Level FlightAware Approximate
02:01PM 18.9308 -70.2981 334° Northwest 390 449 25,900  Level Miami Center
02:02PM 19.4720 -70.3774 327° Northwest  Level FlightAware Approximate
02:02PM 19.0328 -70.3525 333° Northwest 395 455 27,900  Level Miami Center
02:03PM 19.5598 -70.4371 327° Northwest  Level FlightAware Approximate
02:03PM 19.1331 -70.4114 331° Northwest 406 467 29,900  Level Miami Center
02:04PM 19.2333 -70.4681 332° Northwest 406 467 30,000  Climbing Miami Center
02:05PM 19.3331 -70.5206 334° Northwest 406 467 30,000  Level Miami Center
02:06PM 19.4333 -70.5756 333° Northwest 406 467 30,000  Level Miami Center
02:07PM 19.5336 -70.6369 330° Northwest 411 473 30,000  Level Miami Center
02:08PM 19.6336 -70.6939 332° Northwest 411 473 30,000  Level Miami Center
02:09PM 19.7358 -70.7489 333° Northwest 411 473 30,000  Level Miami Center
02:10PM 19.8358 -70.8039 333° Northwest 411 473 30,000  Level Miami Center
02:11PM 19.9381 -70.8592 333° Northwest 411 473 30,000  Level Miami Center
02:12PM 20.0378 -70.9100 334° Northwest 406 467 30,000  Level Miami Center
02:13PM 20.1378 -70.9653 333° Northwest 406 467 30,000  Level Miami Center
02:14PM 20.2397 -71.0183 334° Northwest 406 467 30,000  Level Miami Center
02:15PM 20.3378 -71.0761 331° Northwest 401 461 30,000  Level Miami Center
02:16PM 20.4297 -71.1386 328° Northwest 401 461 30,000  Level Miami Center
02:17PM 20.4917 -71.2333 305° West 386 444 30,000  Level Miami Center
02:18PM 20.5514 -71.3303 303° West 392 451 30,000  Level Miami Center
02:19PM 20.6111 -71.4256 304° West 392 451 30,000  Level Miami Center
02:20PM 20.6708 -71.5250 303° West 392 451 30,000  Level Miami Center
02:21PM 20.7303 -71.6203 304° West 392 451 30,000  Level Miami Center
02:22PM 20.7919 -71.7175 304° West 392 451 30,000  Level Miami Center
02:23PM 20.8514 -71.8131 304° West 392 451 30,000  Level Miami Center
02:24PM 20.9131 -71.9106 304° West 392 451 30,000  Level Miami Center
02:25PM 20.9725 -72.0083 303° West 397 457 30,000  Level Miami Center
02:26PM 21.0339 -72.1083 303° West 397 457 30,000  Level Miami Center
02:27PM 21.0867 -72.1953 303° West 397 457 30,000  Level Miami Center
02:28PM 21.1481 -72.2933 304° West 397 457 30,000  Level Miami Center
02:29PM 21.2072 -72.3914 303° West 397 457 30,000  Level Miami Center
02:30PM 21.2664 -72.4897 303° West 397 457 30,000  Level Miami Center
02:31PM 21.3256 -72.5881 303° West 397 457 30,000  Level Miami Center
02:32PM 21.3867 -72.6864 304° West 397 457 30,000  Level Miami Center
02:33PM 21.4478 -72.7847 304° West 397 457 30,000  Level Miami Center
02:34PM 21.5067 -72.8811 303° West 397 457 30,000  Level Miami Center
02:35PM 21.5656 -72.9819 302° West 397 457 30,000  Level Miami Center
02:36PM 21.6264 -73.0806 304° West 397 457 30,000  Level Miami Center
02:37PM 21.6853 -73.1794 303° West 397 457 30,000  Level Miami Center
02:38PM 21.7419 -73.2783 302° West 397 457 30,000  Level Miami Center
02:39PM 21.7983 -73.3797 301° West 397 457 30,000  Level Miami Center
02:40PM 21.8592 -73.4786 304° West 397 457 30,000  Level Miami Center
02:41PM 21.9239 -73.5778 305° West 397 457 30,000  Level Miami Center
02:42PM 21.9803 -73.6772 301° West 402 463 30,000  Level Miami Center
02:43PM 22.0433 -73.7922 301° West 402 463 30,000  Level Miami Center
02:44PM 22.1036 -73.8869 304° West 397 457 30,000  Level Miami Center
02:45PM 22.1619 -73.9889 302° West 397 457 30,000  Level Miami Center
02:46PM 22.2200 -74.0861 303° West 397 457 30,000  Level Miami Center
02:47PM 22.2806 -74.1883 303° West 397 457 30,000  Level Miami Center
02:48PM 22.3386 -74.2858 303° West 397 457 30,000  Level Miami Center
02:49PM 22.3986 -74.3881 302° West 397 457 30,000  Level Miami Center
02:50PM 22.4567 -74.4881 302° West 397 457 30,000  Level Miami Center
02:51PM 22.5167 -74.5881 303° West 397 457 30,000  Level Miami Center
02:52PM 22.5744 -74.6861 303° West 397 457 30,000  Level Miami Center
02:53PM 22.6300 -74.7750 304° West 397 457 30,000  Level Miami Center
02:54PM 22.6881 -74.8778 301° West 397 457 30,000  Level Miami Center
02:55PM 22.7456 -74.9781 302° West 397 457 30,000  Level Miami Center
02:56PM 22.8075 -75.0764 304° West 397 457 30,000  Level Miami Center
02:57PM 22.8628 -75.1772 301° West 397 457 30,000  Level Miami Center
02:58PM 22.9203 -75.2800 301° West 397 457 30,000  Level Miami Center
02:59PM 22.9778 -75.3786 302° West 397 457 30,000  Level Miami Center
03:00PM 23.0372 -75.4819 302° West 397 457 30,000  Level Miami Center
03:01PM 23.0947 -75.5850 301° West 397 457 30,000  Level Miami Center
03:02PM 23.1519 -75.6839 302° West 397 457 30,000  Level Miami Center
03:03PM 23.2092 -75.7875 301° West 397 457 30,000  Level Miami Center
03:04PM 23.2683 -75.8908 302° West 397 457 30,000  Level Miami Center
03:05PM 23.3275 -75.9944 302° West 397 457 30,000  Level Miami Center
03:06PM 23.3886 -76.0939 304° West 397 457 30,000  Level Miami Center
03:07PM 23.4517 -76.2019 302° West 397 457 30,000  Level Miami Center
03:08PM 23.5108 -76.3061 302° West 397 457 30,000  Level Miami Center
03:09PM 23.5675 -76.4078 301° West 397 457 30,000  Level Miami Center
03:10PM 23.6242 -76.5072 302° West 397 457 30,000  Level Miami Center
03:11PM 23.6808 -76.6094 301° West 397 457 30,000  Level Miami Center
03:12PM 23.7394 -76.7092 303° West 397 457 30,000  Level Miami Center
03:13PM 23.7939 -76.8111 300° West 397 457 30,000  Level Miami Center
03:14PM 23.8503 -76.9133 301° West 397 457 30,000  Level Miami Center
03:15PM 23.9025 -76.9975 304° West 389 448 30,000  Level Miami Center
03:16PM 23.9567 -77.1044 299° West 389 448 30,000  Level Miami Center
03:17PM 24.0150 -77.2025 303° West 383 441 30,000  Level Miami Center
03:18PM 24.0692 -77.3050 300° West 383 441 30,000  Level Miami Center
03:19PM 24.1272 -77.4075 302° West 383 441 30,000  Level Miami Center
03:20PM 24.1811 -77.5058 301° West 383 441 30,000  Level Miami Center
03:21PM 24.2372 -77.6064 301° West 383 441 30,000  Level Miami Center
03:22PM 24.2911 -77.7069 300° West 383 441 30,000  Level Miami Center
03:23PM 24.3489 -77.8056 303° West 383 441 30,000  Level Miami Center
03:24PM 24.4025 -77.9064 300° West 383 441 30,000  Level Miami Center
03:25PM 24.4583 -78.0094 301° West 383 441 30,000  Level Miami Center
03:26PM 24.5181 -78.1197 301° West 383 441 30,000  Level Miami Center
03:27PM 24.5736 -78.2183 302° West 383 441 30,000  Level Miami Center
03:28PM 24.6292 -78.3172 302° West 383 441 30,000  Level Miami Center
03:29PM 24.6825 -78.4164 301° West 383 441 30,000  Level Miami Center
03:30PM 24.7336 -78.5131 300° West 378 435 30,000  Level Miami Center
03:31PM 24.7908 -78.6144 302° West 385 443 30,000  Level Miami Center
03:32PM 24.8461 -78.7139 302° West 385 443 30,000  Level Miami Center
03:33PM 24.8950 -78.8108 299° West 380 437 30,000  Level Miami Center
03:34PM 24.9481 -78.9103 300° West 385 443 30,000 -360 Level Miami Center
03:35PM 25.0072 -79.0075 304° West 380 437 29,300 -1,560 Descending Miami Center
03:36PM 25.0622 -79.1094 301° West 380 437 26,900 -2,880 Descending Miami Center
03:37PM 25.1169 -79.2181 299° West 392 451 23,600 -3,120 Descending Miami Center
03:38PM 25.1797 -79.3297 302° West 413 475 20,700 -2,880 Descending Miami Center
03:39PM 25.2383 -79.4456 299° West 425 489 17,900 -2,760 Descending Miami Center
03:40PM 25.2747 -79.5131 301° West 415 478 16,200 -2,580 Descending Miami Center
03:40PM 25.2972 -79.5503 304° West 424 488 15,400 -1,680 Descending Miami Center
03:41PM 25.3314 -79.6156 300° West 385 443 14,500 -1,440 Descending Miami Center
03:41PM 25.3517 -79.6528 301° West 406 467 14,000 -1,800 Descending Miami Center
03:42PM 25.3878 -79.7247 299° West 358 412 12,500 -1,920 Descending Miami Center
03:43PM 25.4447 -79.8136 305° West 370 426 10,800 -1,740 Descending Miami Center
03:43PM 25.4631 -79.8369 311° West 368 423 10,400 -1,500 Descending Miami Center
03:44PM 25.5033 -79.9025 304° West 367 422 9,300 -1,500 Descending Miami Center
03:44PM 25.5217 -79.9258 311° West 363 418 8,900 -1,320 Descending Miami Center
03:45PM 25.5603 -79.9869 305° West 339 390 8,000 -1,020 Descending Miami Center
03:45PM 25.5786 -80.0081 314° West 351 404 7,900  Descending Miami Center
03:46PM 25.6208 -80.0806 303° West 281 323 8,000  Climbing Miami Center
03:47PM 25.6592 -80.1461 303° West 276 318 8,000 -60 Level Miami Center
03:48PM 25.6803 -80.2181 288° West 233 268 7,900 -840 Descending Miami Center
03:49PM 25.6975 -80.2878 285° West 231 266 6,400 -1,740 Descending Miami Center
03:50PM 25.7039 -80.3733 275° West 234 269 4,300 -1,620 Descending Miami Center
03:51PM 25.7044 -80.4425 271° West 228 262 3,000 -720 Descending Miami Center
03:52PM 25.7347 -80.4825 310° West 213 245 3,000 -300 Level Miami Center
03:53PM 25.7772 -80.4514 33° Northeast 183 211 2,400 -720 Descending Miami Center
03:54PM 25.7806 -80.4008 86° East 160 184 1,500 -840 Descending Miami Center
03:55PM 25.7817 -80.3569 88° East 122 140 800 -780 Descending Miami Center
03:56PM 25.7844 -80.3203 85° East 121 139 100 -780 Descending Miami Center
03:58PM 25.7833 -80.2833 77° East  Level FlightAware Approximate
04:05PM 25.7954 -80.2901 77° East  Level Estimated